createdAt,value
2023-04-08T00:00:10.232Z,93.07
2023-04-08T00:05:56.482Z,92.89
2023-04-08T00:11:20.731Z,92.78
2023-04-08T00:16:45.226Z,92.88
2023-04-08T00:22:09.542Z,92.98
2023-04-08T00:27:34.915Z,92.97
2023-04-08T00:32:59.515Z,93.00
2023-04-08T00:38:24.208Z,92.89
2023-04-08T00:43:48.566Z,92.94
2023-04-08T00:49:12.838Z,92.90
2023-04-08T00:54:38.837Z,93.02
2023-04-08T01:00:06.518Z,93.52
2023-04-08T01:05:49.013Z,93.50
2023-04-08T01:11:14.546Z,93.40
2023-04-08T01:16:42.808Z,93.26
2023-04-08T01:22:50.689Z,93.12
2023-04-08T01:28:18.446Z,92.87
2023-04-08T01:33:44.477Z,92.91
2023-04-08T01:39:09.650Z,92.64
2023-04-08T01:44:35.622Z,92.67
2023-04-08T01:50:01.265Z,92.24
2023-04-08T01:55:26.690Z,92.33
2023-04-08T02:00:54.447Z,92.18
2023-04-08T02:06:19.504Z,92.16
2023-04-08T02:11:44.694Z,92.08
2023-04-08T02:17:14.023Z,92.07
2023-04-08T02:22:44.357Z,91.72
2023-04-08T02:28:12.180Z,91.36
2023-04-08T02:33:37.525Z,91.17
2023-04-08T02:39:04.181Z,91.60
2023-04-08T02:44:29.544Z,93.29
2023-04-08T02:49:55.604Z,95.43
2023-04-08T02:55:19.728Z,97.62
2023-04-08T03:00:43.873Z,98.15
2023-04-08T03:06:08.334Z,98.71
2023-04-08T03:11:33.787Z,98.92
2023-04-08T03:16:58.889Z,98.52
2023-04-08T03:22:24.638Z,98.20
2023-04-08T03:27:48.464Z,97.97
2023-04-08T03:33:12.889Z,97.64
2023-04-08T03:38:36.955Z,97.63
2023-04-08T03:44:01.983Z,97.52
2023-04-08T03:49:26.359Z,97.68
2023-04-08T03:54:50.570Z,97.63
2023-04-08T04:00:15.079Z,97.45
2023-04-08T04:05:42.607Z,97.45
2023-04-08T04:11:06.912Z,97.36
2023-04-08T04:16:33.063Z,97.33
2023-04-08T04:21:57.816Z,97.34
2023-04-08T04:27:22.561Z,97.17
2023-04-08T04:32:47.223Z,97.00
2023-04-08T04:38:12.998Z,96.97
2023-04-08T04:43:37.502Z,97.01
2023-04-08T04:49:02.786Z,97.23
2023-04-08T04:54:27.274Z,97.18
2023-04-08T04:59:51.324Z,97.14
2023-04-08T05:05:15.471Z,96.93
2023-04-08T05:10:42.013Z,96.62
2023-04-08T05:16:06.764Z,96.48
2023-04-08T05:21:32.997Z,96.51
2023-04-08T05:26:58.251Z,96.33
2023-04-08T05:32:23.746Z,96.17
2023-04-08T05:37:48.760Z,96.50
2023-04-08T05:43:12.394Z,96.08
2023-04-08T05:48:36.896Z,95.98
2023-04-08T05:54:04.388Z,95.81
2023-04-08T05:59:30.574Z,95.68
2023-04-08T06:04:55.486Z,94.82
2023-04-08T06:10:21.108Z,94.26
2023-04-08T06:15:45.755Z,93.59
2023-04-08T06:21:12.068Z,93.29
2023-04-08T06:26:37.229Z,93.10
2023-04-08T06:32:03.715Z,93.22
2023-04-08T06:37:33.072Z,92.89
2023-04-08T06:43:01.196Z,92.18
2023-04-08T06:48:33.349Z,92.24
2023-04-08T06:53:58.367Z,91.71
2023-04-08T06:59:23.074Z,91.57
2023-04-08T07:04:47.543Z,91.62
2023-04-08T07:10:13.228Z,91.30
2023-04-08T07:15:37.879Z,90.81
2023-04-08T07:21:03.426Z,90.58
2023-04-08T07:26:29.358Z,90.56
2023-04-08T07:31:56.671Z,90.41
2023-04-08T07:37:22.359Z,90.27
2023-04-08T07:42:47.617Z,90.68
2023-04-08T07:48:11.601Z,90.48
2023-04-08T07:53:36.736Z,90.28
2023-04-08T07:59:01.950Z,90.51
2023-04-08T08:04:26.863Z,90.10
2023-04-08T08:09:51.470Z,89.53
2023-04-08T08:15:15.849Z,89.44
2023-04-08T08:20:39.890Z,88.89
2023-04-08T08:26:06.678Z,88.11
2023-04-08T08:31:30.839Z,87.99
2023-04-08T08:36:56.392Z,87.90
2023-04-08T08:42:25.269Z,87.98
2023-04-08T08:47:51.201Z,88.10
2023-04-08T08:53:15.845Z,88.06
2023-04-08T08:58:40.397Z,88.11
2023-04-08T09:04:13.234Z,86.94
2023-04-08T09:09:51.656Z,86.04
2023-04-08T09:15:16.723Z,85.43
2023-04-08T09:20:53.692Z,85.73
2023-04-08T09:26:24.723Z,85.00
2023-04-08T09:31:55.210Z,84.52
2023-04-08T09:37:19.423Z,83.60
2023-04-08T09:42:51.032Z,82.98
2023-04-08T09:48:24.393Z,82.81
2023-04-08T09:53:50.884Z,81.74
2023-04-08T09:59:17.828Z,80.37
2023-04-08T10:04:49.370Z,79.37
2023-04-08T10:10:14.907Z,78.89
2023-04-08T10:15:43.711Z,79.24
2023-04-08T10:21:33.773Z,79.11
2023-04-08T10:26:58.863Z,78.61
2023-04-08T10:32:30.600Z,77.97
2023-04-08T10:37:56.275Z,76.93
2023-04-08T10:43:21.550Z,76.71
2023-04-08T10:48:45.989Z,77.19
2023-04-08T10:54:18.043Z,75.85
2023-04-08T10:59:42.792Z,74.93
2023-04-08T11:05:11.314Z,74.81
2023-04-08T11:10:39.995Z,74.30
2023-04-08T11:16:17.081Z,74.53
2023-04-08T11:21:47.449Z,73.48
2023-04-08T11:27:12.353Z,73.54
2023-04-08T11:32:37.721Z,73.75
2023-04-08T11:38:05.795Z,74.18
2023-04-08T11:43:30.806Z,73.88
2023-04-08T11:49:04.392Z,73.86
2023-04-08T11:54:32.718Z,72.95
2023-04-08T11:59:57.348Z,72.01
2023-04-08T12:05:21.881Z,72.33
2023-04-08T12:10:46.100Z,72.53
2023-04-08T12:16:10.976Z,71.94
2023-04-08T12:21:35.412Z,72.14
2023-04-08T12:27:00.212Z,72.43
2023-04-08T12:32:25.952Z,73.03
2023-04-08T12:37:50.065Z,72.74
2023-04-08T12:43:14.126Z,72.25
2023-04-08T12:48:38.637Z,71.27
2023-04-08T12:54:04.510Z,70.83
2023-04-08T12:59:29.299Z,70.59
2023-04-08T13:04:54.077Z,70.40
2023-04-08T13:10:18.201Z,70.15
2023-04-08T13:15:42.382Z,69.34
2023-04-08T13:21:06.636Z,68.37
2023-04-08T13:26:31.040Z,68.66
2023-04-08T13:31:56.106Z,68.36
2023-04-08T13:37:20.588Z,69.76
2023-04-08T13:42:45.096Z,69.92
2023-04-08T13:48:09.908Z,69.31
2023-04-08T13:53:35.064Z,68.93
2023-04-08T13:58:59.817Z,68.56
2023-04-08T14:04:24.791Z,68.05
2023-04-08T14:09:49.209Z,69.15
2023-04-08T14:15:13.432Z,68.19
2023-04-08T14:20:38.825Z,67.81
2023-04-08T14:26:03.611Z,68.20
2023-04-08T14:31:28.861Z,67.83
2023-04-08T14:36:54.887Z,67.44
2023-04-08T14:42:19.637Z,67.04
2023-04-08T14:47:43.952Z,67.81
2023-04-08T14:53:08.899Z,68.74
2023-04-08T14:58:33.488Z,67.35
2023-04-08T15:03:58.364Z,67.53
2023-04-08T15:09:24.253Z,68.03
2023-04-08T15:14:48.958Z,66.71
2023-04-08T15:20:13.797Z,68.03
2023-04-08T15:25:37.716Z,67.66
2023-04-08T15:31:02.604Z,68.65
2023-04-08T15:36:26.967Z,67.34
2023-04-08T15:41:51.745Z,68.02
2023-04-08T15:47:16.724Z,68.41
2023-04-08T15:52:41.928Z,68.22
2023-04-08T15:58:06.964Z,66.19
2023-04-08T16:03:31.055Z,66.75
2023-04-08T16:08:57.094Z,67.57
2023-04-08T16:14:56.995Z,67.27
2023-04-08T16:20:57.254Z,67.00
2023-04-08T16:26:56.370Z,66.79
2023-04-08T16:32:55.076Z,66.99
2023-04-08T16:38:43.081Z,68.29
2023-04-08T16:44:07.623Z,69.06
2023-04-08T16:49:32.226Z,69.45
2023-04-08T16:54:58.075Z,70.17
2023-04-08T17:00:22.422Z,70.41
2023-04-08T17:05:46.422Z,70.29
2023-04-08T17:11:13.822Z,68.92
2023-04-08T17:16:38.197Z,69.84
2023-04-08T17:22:03.078Z,70.90
2023-04-08T17:27:27.706Z,70.44
2023-04-08T17:32:51.831Z,70.15
2023-04-08T17:38:16.486Z,70.72
2023-04-08T17:43:40.747Z,70.74
2023-04-08T17:49:05.356Z,71.30
2023-04-08T17:54:31.853Z,71.82
2023-04-08T17:59:56.374Z,72.22
2023-04-08T18:05:21.986Z,72.85
2023-04-08T18:10:46.952Z,73.43
2023-04-08T18:16:18.588Z,73.71
2023-04-08T18:21:42.956Z,74.04
2023-04-08T18:27:08.794Z,74.12
2023-04-08T18:32:33.201Z,74.13
2023-04-08T18:37:57.529Z,74.61
2023-04-08T18:43:21.863Z,74.77
2023-04-08T18:48:47.316Z,75.14
2023-04-08T18:54:11.950Z,75.18
2023-04-08T18:59:37.526Z,74.97
2023-04-08T19:05:02.043Z,75.15
2023-04-08T19:10:26.118Z,75.51
2023-04-08T19:15:51.075Z,75.72
2023-04-08T19:21:15.722Z,75.82
2023-04-08T19:26:40.023Z,76.03
2023-04-08T19:32:05.102Z,76.23
2023-04-08T19:37:30.316Z,75.90
2023-04-08T19:42:55.265Z,75.57
2023-04-08T19:48:20.935Z,75.75
2023-04-08T19:53:44.934Z,76.32
2023-04-08T19:59:11.239Z,77.12
2023-04-08T20:04:36.636Z,77.46
2023-04-08T20:10:01.592Z,77.67
2023-04-08T20:15:26.670Z,77.75
2023-04-08T20:20:51.237Z,78.26
2023-04-08T20:26:16.064Z,79.29
2023-04-08T20:31:40.500Z,79.44
2023-04-08T20:37:06.364Z,79.31
2023-04-08T20:42:30.483Z,79.09
2023-04-08T20:47:54.635Z,78.70
2023-04-08T20:53:19.810Z,78.48
2023-04-08T20:58:43.726Z,78.55
2023-04-08T21:04:08.076Z,78.98
2023-04-08T21:09:32.924Z,79.39
2023-04-08T21:14:57.675Z,79.97
2023-04-08T21:20:22.313Z,80.06
2023-04-08T21:25:46.518Z,80.74
2023-04-08T21:31:11.655Z,81.29
2023-04-08T21:36:35.762Z,80.90
2023-04-08T21:42:00.534Z,81.18
2023-04-08T21:47:25.068Z,81.09
2023-04-08T21:52:48.885Z,80.82
2023-04-08T21:58:13.126Z,81.06
2023-04-08T22:03:37.706Z,80.92
2023-04-08T22:09:02.358Z,81.00
2023-04-08T22:14:26.816Z,81.39
2023-04-08T22:19:51.466Z,81.65
2023-04-08T22:25:15.707Z,82.25
2023-04-08T22:30:39.759Z,82.04
2023-04-08T22:36:05.179Z,82.10
2023-04-08T22:41:29.137Z,81.95
2023-04-08T22:46:53.756Z,81.73
2023-04-08T22:52:18.228Z,81.97
2023-04-08T22:57:42.237Z,82.25
2023-04-08T23:03:06.228Z,82.25
2023-04-08T23:08:29.899Z,82.60
2023-04-08T23:13:54.813Z,82.65
2023-04-08T23:19:19.598Z,82.76
2023-04-08T23:24:44.110Z,83.22
2023-04-08T23:30:08.668Z,83.24
2023-04-08T23:35:32.775Z,82.90
2023-04-08T23:40:56.706Z,82.72
2023-04-08T23:46:21.209Z,82.72
2023-04-08T23:51:46.185Z,82.39
2023-04-08T23:57:10.539Z,82.34
